Time;durP1;ratioP1;P1;durP2;ratioP2;P2;SDS_P1;SDS_P2;PMS_P1;PMS_P2;Temp;Humidity;BMP_temperature;BMP_pressure;BME280_temperature;BME280_humidity;BME280_pressure;Samples;Min_cycle;Max_cycle;Signal;HPM_P1;HPM_P2
2022/09/28 00:02:29;;;;;;;;;;;7.40;99.90;;;;;;5103112;27;20415;-58
2022/09/28 00:05:10;;;;;;;;;;;7.40;99.90;;;;;;5104703;27;19912;-57
2022/09/28 00:07:50;;;;;;;;;;;7.40;99.90;;;;;;5090587;27;19925;-57
2022/09/28 00:10:30;;;;;;;;;;;7.40;99.90;;;;;;5104908;27;19915;-55
2022/09/28 00:13:09;;;;;;;;;;;7.40;99.90;;;;;;5105118;27;19916;-57
2022/09/28 00:15:58;;;;;;;;;;;7.50;99.90;;;;;;5085001;28;20355;-57
2022/09/28 00:18:37;;;;;;;;;;;7.50;99.90;;;;;;5105062;27;19920;-58
2022/09/28 00:21:18;;;;;;;;;;;7.40;99.90;;;;;;5085141;28;19912;-57
2022/09/28 00:24:15;;;;;;;;;;;7.40;99.90;;;;;;5105558;27;20023;-58
2022/09/28 00:26:55;;;;;;;;;;;7.40;99.90;;;;;;5098973;27;19927;-58
2022/09/28 00:29:36;;;;;;;;;;;7.30;99.90;;;;;;5104457;27;19916;-57
2022/09/28 00:32:17;;;;;;;;;;;7.40;99.90;;;;;;5105632;27;19926;-58
2022/09/28 00:34:57;;;;;;;;;;;7.40;99.90;;;;;;5110560;27;19920;-58
2022/09/28 00:37:37;;;;;;;;;;;7.30;99.90;;;;;;5146350;27;20188;-58
2022/09/28 00:40:17;;;;;;;;;;;7.20;99.90;;;;;;5104413;27;20319;-58
2022/09/28 00:42:59;;;;;;;;;;;7.00;99.90;;;;;;5105660;27;19912;-58
2022/09/28 00:45:39;;;;;;;;;;;6.90;99.90;;;;;;5084659;28;20378;-58
2022/09/28 00:48:19;;;;;;;;;;;6.80;99.90;;;;;;5125531;27;19912;-58
2022/09/28 00:51:00;;;;;;;;;;;6.80;99.90;;;;;;5104979;27;20199;-58
2022/09/28 00:53:42;;;;;;;;;;;6.70;99.90;;;;;;5105127;27;20426;-58
2022/09/28 00:56:24;;;;;;;;;;;6.70;99.90;;;;;;5103118;27;20423;-58
2022/09/28 00:59:07;;;;;;;;;;;6.60;99.90;;;;;;5125241;27;20552;-58
2022/09/28 01:01:48;;;;;;;;;;;6.60;99.90;;;;;;5103085;27;19934;-58
2022/09/28 01:04:28;;;;;;;;;;;6.50;99.90;;;;;;5125440;27;19912;-58
2022/09/28 01:07:10;;;;;;;;;;;6.50;99.90;;;;;;5096538;27;19912;-58
2022/09/28 01:09:53;;;;;;;;;;;6.40;99.90;;;;;;5104260;27;19934;-57
2022/09/28 01:12:34;;;;;;;;;;;6.30;99.90;;;;;;5125879;27;19912;-58
2022/09/28 01:15:14;;;;;;;;;;;6.30;99.90;;;;;;5104942;27;20323;-57
2022/09/28 01:18:00;;;;;;;;;;;6.20;99.90;;;;;;5104604;27;19930;-57
2022/09/28 01:21:06;;;;;;;;;;;6.30;99.90;;;;;;5124947;27;20369;-58
2022/09/28 01:24:00;;;;;;;;;;;6.30;99.90;;;;;;5119597;27;19926;-58
2022/09/28 01:26:51;;;;;;;;;;;6.10;99.90;;;;;;5100265;27;19953;-58
2022/09/28 01:29:45;;;;;;;;;;;5.90;99.90;;;;;;5123859;27;19915;-58
2022/09/28 01:32:34;;;;;;;;;;;5.70;99.90;;;;;;5154618;27;19915;-58
2022/09/28 01:35:16;;;;;;;;;;;5.70;99.90;;;;;;5104799;27;19928;-58
2022/09/28 01:38:00;;;;;;;;;;;5.80;99.90;;;;;;5104739;27;19916;-58
2022/09/28 01:40:40;;;;;;;;;;;5.90;99.90;;;;;;5104055;27;19912;-58
2022/09/28 01:43:22;;;;;;;;;;;6.00;99.90;;;;;;5105226;27;19926;-56
2022/09/28 01:46:07;;;;;;;;;;;6.10;99.90;;;;;;5105512;27;19912;-58
2022/09/28 01:48:50;;;;;;;;;;;6.10;99.90;;;;;;5156695;27;19915;-57
2022/09/28 01:51:36;;;;;;;;;;;6.10;99.90;;;;;;5104871;27;20419;-58
2022/09/28 01:54:20;;;;;;;;;;;6.10;99.90;;;;;;5084504;28;19912;-58
2022/09/28 01:57:05;;;;;;;;;;;6.20;99.90;;;;;;5104914;27;19935;-58
2022/09/28 01:59:50;;;;;;;;;;;6.20;99.90;;;;;;5104715;27;20482;-57
2022/09/28 02:02:34;;;;;;;;;;;6.30;99.90;;;;;;5123826;27;19912;-57
2022/09/28 02:05:16;;;;;;;;;;;6.50;99.90;;;;;;5104780;27;19926;-57
2022/09/28 02:08:01;;;;;;;;;;;6.60;99.90;;;;;;5125277;27;19916;-58
2022/09/28 02:10:42;;;;;;;;;;;6.60;99.90;;;;;;5124729;27;19916;-57
2022/09/28 02:13:24;;;;;;;;;;;6.60;99.90;;;;;;5104981;27;20373;-58
2022/09/28 02:16:06;;;;;;;;;;;6.70;99.90;;;;;;5105218;27;19953;-58
2022/09/28 02:18:47;;;;;;;;;;;6.70;99.90;;;;;;5104206;27;19950;-57
2022/09/28 02:21:31;;;;;;;;;;;6.80;99.90;;;;;;5105000;27;19926;-58
2022/09/28 02:24:14;;;;;;;;;;;6.80;99.90;;;;;;5104856;27;19926;-57
2022/09/28 02:26:57;;;;;;;;;;;6.80;99.90;;;;;;5125477;27;20323;-58
2022/09/28 02:29:38;;;;;;;;;;;6.70;99.90;;;;;;5125019;27;20315;-58
2022/09/28 02:32:19;;;;;;;;;;;6.70;99.90;;;;;;5105419;27;19916;-57
2022/09/28 02:34:59;;;;;;;;;;;6.70;99.90;;;;;;5125384;27;19920;-57
2022/09/28 02:37:39;;;;;;;;;;;6.70;99.90;;;;;;5084287;28;19963;-57
2022/09/28 02:40:20;;;;;;;;;;;6.70;99.90;;;;;;5104313;27;20378;-58
2022/09/28 02:43:05;;;;;;;;;;;6.80;99.90;;;;;;5105067;27;19949;-58
2022/09/28 02:45:51;;;;;;;;;;;6.90;99.90;;;;;;5104990;27;20447;-57
2022/09/28 02:48:43;;;;;;;;;;;6.90;99.90;;;;;;5138445;22;19929;-57
2022/09/28 02:51:27;;;;;;;;;;;6.90;99.90;;;;;;5105076;27;19946;-57
2022/09/28 02:54:23;;;;;;;;;;;6.90;99.90;;;;;;5084577;28;19912;-57
2022/09/28 02:57:15;;;;;;;;;;;6.90;99.90;;;;;;5104833;27;19930;-57
2022/09/28 02:59:59;;;;;;;;;;;6.80;99.90;;;;;;5120810;27;19973;-57
2022/09/28 03:02:46;;;;;;;;;;;6.80;99.90;;;;;;5123858;27;19916;-58
2022/09/28 03:05:31;;;;;;;;;;;6.80;99.90;;;;;;5104654;27;19930;-57
2022/09/28 03:08:14;;;;;;;;;;;6.80;99.90;;;;;;5094080;27;19916;-57
2022/09/28 03:10:55;;;;;;;;;;;6.80;99.90;;;;;;5104602;27;19927;-58
2022/09/28 03:13:35;;;;;;;;;;;6.80;99.90;;;;;;5105330;27;20377;-57
2022/09/28 03:16:18;;;;;;;;;;;6.80;99.90;;;;;;5104870;27;19923;-58
2022/09/28 03:19:01;;;;;;;;;;;6.80;99.90;;;;;;5124370;27;20363;-57
2022/09/28 03:21:41;;;;;;;;;;;6.70;99.90;;;;;;5104836;27;19916;-57
2022/09/28 03:24:21;;;;;;;;;;;6.80;99.90;;;;;;5102597;27;19930;-56
2022/09/28 03:27:00;;;;;;;;;;;6.80;99.90;;;;;;5103803;27;19912;-57
2022/09/28 03:29:40;;;;;;;;;;;6.80;99.90;;;;;;5124543;27;19912;-57
2022/09/28 03:32:22;;;;;;;;;;;6.70;99.90;;;;;;5104755;27;19930;-57
2022/09/28 03:35:01;;;;;;;;;;;6.70;99.90;;;;;;5083087;28;19916;-57
2022/09/28 03:37:41;;;;;;;;;;;6.70;99.90;;;;;;5097612;27;19950;-57
2022/09/28 03:40:21;;;;;;;;;;;6.70;99.90;;;;;;5104540;27;19916;-57
2022/09/28 03:43:01;;;;;;;;;;;6.70;99.90;;;;;;5126453;27;19916;-58
2022/09/28 03:45:41;;;;;;;;;;;6.70;99.90;;;;;;5105090;27;19912;-58
2022/09/28 03:48:23;;;;;;;;;;;6.70;99.90;;;;;;5113620;27;19912;-58
2022/09/28 03:51:05;;;;;;;;;;;6.70;99.90;;;;;;5104395;27;19926;-58
2022/09/28 03:53:47;;;;;;;;;;;6.70;99.90;;;;;;5125376;27;20365;-58
2022/09/28 03:56:27;;;;;;;;;;;6.70;99.90;;;;;;5104928;27;19912;-57
2022/09/28 03:59:07;;;;;;;;;;;6.60;99.90;;;;;;5104099;27;19920;-57
2022/09/28 04:01:48;;;;;;;;;;;6.60;99.90;;;;;;5103012;27;19916;-57
2022/09/28 04:04:28;;;;;;;;;;;6.60;99.90;;;;;;5084136;28;19912;-57
2022/09/28 04:07:07;;;;;;;;;;;6.60;99.90;;;;;;5101374;27;19954;-57
2022/09/28 04:09:47;;;;;;;;;;;6.60;99.90;;;;;;5082716;28;19921;-57
2022/09/28 04:12:27;;;;;;;;;;;6.60;99.90;;;;;;5103984;27;19916;-57
2022/09/28 04:15:07;;;;;;;;;;;6.70;99.90;;;;;;5103328;27;20316;-58
2022/09/28 04:17:48;;;;;;;;;;;6.70;99.90;;;;;;5095334;27;19954;-57
2022/09/28 04:20:46;;;;;;;;;;;6.70;99.90;;;;;;5102577;27;19930;-57
2022/09/28 04:23:28;;;;;;;;;;;6.70;99.90;;;;;;5103689;27;19926;-57
2022/09/28 04:26:15;;;;;;;;;;;6.70;99.90;;;;;;5103545;27;20315;-57
2022/09/28 04:31:53;;;;;;;;;;;6.70;99.90;;;;;;5095637;27;20504;-58
2022/09/28 04:34:39;;;;;;;;;;;6.70;99.90;;;;;;5104683;27;20130;-58
2022/09/28 04:37:18;;;;;;;;;;;6.70;99.90;;;;;;5103460;27;19920;-58
2022/09/28 04:39:58;;;;;;;;;;;6.70;99.90;;;;;;5103345;27;20445;-57
2022/09/28 04:42:38;;;;;;;;;;;6.70;99.90;;;;;;5104074;27;19913;-57
2022/09/28 04:45:18;;;;;;;;;;;6.70;99.90;;;;;;5104085;27;19916;-56
2022/09/28 04:47:59;;;;;;;;;;;6.80;99.90;;;;;;5094577;27;20123;-57
2022/09/28 04:50:57;;;;;;;;;;;6.80;99.90;;;;;;5102870;27;19912;-57
2022/09/28 04:53:38;;;;;;;;;;;6.80;99.90;;;;;;5137828;27;19927;-57
2022/09/28 04:56:18;;;;;;;;;;;6.80;99.90;;;;;;5098217;27;19923;-57
2022/09/28 04:58:58;;;;;;;;;;;6.80;99.90;;;;;;5100648;27;20289;-57
2022/09/28 05:01:38;;;;;;;;;;;6.80;99.90;;;;;;5100255;27;19930;-57
2022/09/28 05:04:17;;;;;;;;;;;6.80;99.90;;;;;;5122798;27;19911;-57
2022/09/28 05:07:16;;;;;;;;;;;6.80;99.90;;;;;;5102860;27;19961;-57
2022/09/28 05:09:56;;;;;;;;;;;6.80;99.90;;;;;;5122319;27;19915;-57
2022/09/28 05:12:36;;;;;;;;;;;6.80;99.90;;;;;;5124196;27;19912;-59
2022/09/28 05:15:17;;;;;;;;;;;6.70;99.90;;;;;;5150894;27;19918;-57
2022/09/28 05:17:58;;;;;;;;;;;6.80;99.90;;;;;;5115904;27;19916;-58
2022/09/28 05:20:55;;;;;;;;;;;6.80;99.90;;;;;;5123751;27;19911;-57
2022/09/28 05:23:35;;;;;;;;;;;6.80;99.90;;;;;;5102275;27;19946;-57
2022/09/28 05:26:14;;;;;;;;;;;6.80;99.90;;;;;;5123860;27;19919;-57
2022/09/28 05:28:54;;;;;;;;;;;6.80;99.90;;;;;;5123080;27;20368;-55
2022/09/28 05:32:06;;;;;;;;;;;6.80;99.90;;;;;;5103297;27;19915;-57
2022/09/28 05:34:59;;;;;;;;;;;6.80;99.90;;;;;;5103551;27;19981;-57
2022/09/28 05:37:43;;;;;;;;;;;6.90;99.90;;;;;;5095609;27;19927;-57
2022/09/28 05:40:23;;;;;;;;;;;6.90;99.90;;;;;;5103012;27;19912;-57
2022/09/28 05:43:03;;;;;;;;;;;7.00;99.90;;;;;;5102969;27;19912;-56
2022/09/28 05:45:45;;;;;;;;;;;7.00;99.90;;;;;;5124082;27;19912;-57
2022/09/28 05:48:25;;;;;;;;;;;7.00;99.90;;;;;;5089404;27;19950;-57
2022/09/28 05:51:06;;;;;;;;;;;7.10;99.90;;;;;;5123633;27;19915;-58
2022/09/28 05:53:46;;;;;;;;;;;7.10;99.90;;;;;;5103758;27;20373;-58
2022/09/28 05:56:29;;;;;;;;;;;7.10;99.90;;;;;;5104782;27;19913;-57
2022/09/28 05:59:11;;;;;;;;;;;7.10;99.90;;;;;;5124447;27;19916;-59
2022/09/28 06:01:51;;;;;;;;;;;7.20;99.90;;;;;;5102671;27;19926;-58
2022/09/28 06:04:32;;;;;;;;;;;7.20;99.90;;;;;;5124849;27;19912;-57
2022/09/28 06:07:13;;;;;;;;;;;7.20;99.90;;;;;;5121849;27;19919;-57
2022/09/28 06:09:53;;;;;;;;;;;7.30;99.90;;;;;;5103643;27;20574;-59
2022/09/28 06:12:53;;;;;;;;;;;7.30;99.90;;;;;;5104816;27;19930;-58
2022/09/28 06:15:34;;;;;;;;;;;7.40;99.90;;;;;;5104928;27;19912;-57
2022/09/28 06:18:14;;;;;;;;;;;7.40;99.90;;;;;;5113507;27;19919;-58
2022/09/28 06:21:18;;;;;;;;;;;7.50;99.90;;;;;;5104901;27;19946;-57
2022/09/28 06:24:00;;;;;;;;;;;7.50;99.90;;;;;;5105189;27;19912;-57
2022/09/28 06:26:40;;;;;;;;;;;7.60;99.90;;;;;;5116157;27;19920;-58
2022/09/28 06:29:21;;;;;;;;;;;7.50;99.90;;;;;;5163462;27;19915;-57
2022/09/28 06:32:01;;;;;;;;;;;7.60;99.90;;;;;;5157598;27;20419;-56
2022/09/28 06:34:41;;;;;;;;;;;7.60;99.90;;;;;;5103007;27;19912;-56
2022/09/28 06:37:24;;;;;;;;;;;7.80;99.90;;;;;;5102510;27;19973;-57
2022/09/28 06:40:05;;;;;;;;;;;8.10;99.90;;;;;;5103317;27;19950;-56
2022/09/28 06:42:54;;;;;;;;;;;8.30;99.90;;;;;;5103219;27;19930;-57
2022/09/28 06:45:55;;;;;;;;;;;8.40;99.90;;;;;;5103940;27;19926;-57
2022/09/28 06:48:54;;;;;;;;;;;8.40;99.90;;;;;;5102614;27;20454;-58
2022/09/28 06:51:53;;;;;;;;;;;8.40;99.90;;;;;;5145524;27;19919;-57
2022/09/28 06:54:43;;;;;;;;;;;8.30;99.90;;;;;;5103727;27;20343;-57
2022/09/28 06:57:37;;;;;;;;;;;8.40;99.90;;;;;;5103339;27;19945;-58
2022/09/28 07:00:17;;;;;;;;;;;8.50;99.90;;;;;;5124152;27;19942;-58
2022/09/28 07:03:14;;;;;;;;;;;8.50;99.90;;;;;;5123721;27;19922;-60
2022/09/28 07:06:13;;;;;;;;;;;8.60;99.90;;;;;;5084750;28;20419;-58
2022/09/28 07:09:17;;;;;;;;;;;8.50;99.90;;;;;;5104027;27;19920;-57
2022/09/28 07:12:16;;;;;;;;;;;8.50;99.90;;;;;;5105005;27;19926;-57
2022/09/28 07:15:26;;;;;;;;;;;8.60;99.90;;;;;;5125401;27;19912;-57
2022/09/28 07:18:07;;;;;;;;;;;8.70;99.90;;;;;;5115126;27;19912;-59
2022/09/28 07:20:47;;;;;;;;;;;8.90;99.90;;;;;;5124766;27;20305;-57
2022/09/28 07:23:28;;;;;;;;;;;9.00;99.90;;;;;;5104986;27;19926;-57
2022/09/28 07:26:26;;;;;;;;;;;9.20;99.90;;;;;;5104624;27;20369;-57
2022/09/28 07:29:25;;;;;;;;;;;9.40;99.90;;;;;;5123991;27;19915;-59
2022/09/28 07:32:26;;;;;;;;;;;9.50;99.90;;;;;;5146359;27;19919;-56
2022/09/28 07:35:28;;;;;;;;;;;9.70;99.90;;;;;;5125135;27;19912;-54
2022/09/28 07:38:10;;;;;;;;;;;9.90;99.90;;;;;;5094080;27;19981;-55
2022/09/28 07:43:50;;;;;;;;;;;10.20;99.90;;;;;;5154305;27;19929;-56
2022/09/28 07:46:30;;;;;;;;;;;10.10;99.90;;;;;;5104117;27;20567;-56
2022/09/28 07:49:15;;;;;;;;;;;10.10;99.90;;;;;;5104364;27;19946;-55
2022/09/28 07:52:14;;;;;;;;;;;10.00;99.90;;;;;;5102964;27;20206;-55
2022/09/28 07:55:17;;;;;;;;;;;9.90;99.90;;;;;;5101520;27;19930;-57
2022/09/28 07:58:21;;;;;;;;;;;9.90;99.90;;;;;;5089576;27;19962;-55
2022/09/28 08:01:29;;;;;;;;;;;9.90;99.90;;;;;;5103390;27;20107;-55
2022/09/28 08:04:11;;;;;;;;;;;10.20;99.90;;;;;;5103910;27;19930;-56
2022/09/28 08:06:54;;;;;;;;;;;10.60;99.90;;;;;;5083482;28;19913;-56
2022/09/28 08:09:36;;;;;;;;;;;10.80;99.90;;;;;;5123601;27;19920;-56
2022/09/28 08:12:35;;;;;;;;;;;10.90;99.90;;;;;;5124459;27;19925;-57
2022/09/28 08:15:32;;;;;;;;;;;11.00;99.90;;;;;;5103435;27;20600;-56
2022/09/28 08:18:28;;;;;;;;;;;11.20;99.90;;;;;;5110566;27;19939;-59
2022/09/28 08:24:07;;;;;;;;;;;11.20;99.90;;;;;;5122910;27;19912;-58
2022/09/28 08:26:47;;;;;;;;;;;11.30;99.90;;;;;;5103853;27;19965;-56
2022/09/28 08:29:30;;;;;;;;;;;11.20;99.90;;;;;;5124020;27;19915;-56
2022/09/28 08:32:26;;;;;;;;;;;11.30;99.90;;;;;;5124520;27;19911;-56
2022/09/28 08:35:30;;;;;;;;;;;11.50;99.90;;;;;;5124577;27;20284;-56
2022/09/28 08:38:34;;;;;;;;;;;11.50;99.90;;;;;;5103564;27;19918;-57
2022/09/28 08:41:38;;;;;;;;;;;11.60;99.90;;;;;;5125945;27;19912;-57
2022/09/28 08:44:32;;;;;;;;;;;11.60;99.90;;;;;;5105261;27;19916;-56
2022/09/28 08:51:06;;;;;;;;;;;11.70;99.90;;;;;;5097772;22;19924;-55
2022/09/28 08:54:02;;;;;;;;;;;11.70;99.90;;;;;;5126154;27;19913;-58
2022/09/28 08:56:49;;;;;;;;;;;11.70;99.90;;;;;;5105289;27;19926;-56
2022/09/28 08:59:36;;;;;;;;;;;11.90;99.90;;;;;;5104149;27;19916;-54
2022/09/28 09:02:21;;;;;;;;;;;12.00;99.90;;;;;;5121756;27;20384;-56
2022/09/28 09:05:04;;;;;;;;;;;12.00;99.90;;;;;;5102574;27;20385;-55
2022/09/28 09:08:03;;;;;;;;;;;11.90;99.90;;;;;;5145294;27;20298;-57
2022/09/28 09:10:51;;;;;;;;;;;11.70;99.90;;;;;;5113559;27;19916;-57
2022/09/28 09:13:51;;;;;;;;;;;11.50;99.90;;;;;;5102241;27;19927;-54
2022/09/28 09:16:41;;;;;;;;;;;11.60;99.90;;;;;;5103237;27;19912;-55
2022/09/28 09:19:45;;;;;;;;;;;11.70;99.90;;;;;;5123136;27;19915;-56
2022/09/28 09:22:40;;;;;;;;;;;12.10;99.90;;;;;;5103390;27;20316;-56
2022/09/28 09:25:24;;;;;;;;;;;12.40;99.90;;;;;;5123902;27;20847;-57
2022/09/28 09:28:28;;;;;;;;;;;12.40;99.90;;;;;;5104173;27;19916;-55
2022/09/28 09:31:15;;;;;;;;;;;12.50;99.90;;;;;;5089501;27;20334;-56
2022/09/28 09:34:12;;;;;;;;;;;12.60;99.90;;;;;;5150452;27;19911;-56
2022/09/28 09:37:27;;;;;;;;;;;12.50;99.90;;;;;;5101630;27;19926;-57
2022/09/28 09:40:33;;;;;;;;;;;12.60;99.90;;;;;;5115424;27;19912;-56
2022/09/28 09:43:48;;;;;;;;;;;13.10;99.90;;;;;;5103138;27;19947;-56
2022/09/28 09:46:46;;;;;;;;;;;13.50;99.90;;;;;;5143409;27;19919;-55
2022/09/28 09:49:40;;;;;;;;;;;13.20;99.90;;;;;;5079901;28;19935;-55
2022/09/28 09:52:23;;;;;;;;;;;13.10;99.90;;;;;;5124177;27;20327;-57
2022/09/28 09:55:13;;;;;;;;;;;12.80;99.90;;;;;;5103060;27;20430;-55
2022/09/28 09:58:04;;;;;;;;;;;12.70;99.90;;;;;;5123388;27;19920;-58
2022/09/28 10:00:52;;;;;;;;;;;13.10;99.90;;;;;;5102761;27;19916;-55
2022/09/28 10:03:48;;;;;;;;;;;13.30;99.90;;;;;;5104186;27;20385;-55
2022/09/28 10:06:33;;;;;;;;;;;13.70;99.90;;;;;;5103304;27;19916;-55
2022/09/28 10:09:18;;;;;;;;;;;14.10;99.90;;;;;;5103628;27;20796;-56
2022/09/28 10:12:00;;;;;;;;;;;14.60;99.90;;;;;;5123438;27;19911;-56
2022/09/28 10:14:40;;;;;;;;;;;14.70;99.90;;;;;;5122264;27;19919;-56
2022/09/28 10:17:26;;;;;;;;;;;15.00;99.90;;;;;;5124391;27;19916;-55
2022/09/28 10:20:43;;;;;;;;;;;15.20;99.90;;;;;;5090316;27;19926;-55
2022/09/28 10:23:57;;;;;;;;;;;14.90;99.90;;;;;;5088802;27;20399;-56
2022/09/28 10:26:41;;;;;;;;;;;14.40;99.90;;;;;;5104559;27;19930;-55
2022/09/28 10:29:26;;;;;;;;;;;14.20;99.90;;;;;;5103982;27;20431;-55
2022/09/28 10:32:17;;;;;;;;;;;13.70;99.90;;;;;;5127025;27;19946;-56
2022/09/28 10:35:14;;;;;;;;;;;13.40;99.90;;;;;;5103753;27;19926;-55
2022/09/28 10:37:58;;;;;;;;;;;13.40;99.90;;;;;;5125599;27;19919;-57
2022/09/28 10:40:53;;;;;;;;;;;13.60;99.90;;;;;;5111998;27;19924;-55
2022/09/28 10:44:05;;;;;;;;;;;13.90;99.90;;;;;;5105730;27;19912;-55
2022/09/28 10:46:59;;;;;;;;;;;14.10;99.90;;;;;;5105034;27;19916;-55
2022/09/28 10:49:44;;;;;;;;;;;14.30;99.90;;;;;;5103695;27;19930;-55
2022/09/28 10:52:32;;;;;;;;;;;14.70;99.90;;;;;;5104384;27;19912;-57
2022/09/28 10:55:27;;;;;;;;;;;14.90;99.90;;;;;;5104636;27;19930;-56
2022/09/28 10:58:24;;;;;;;;;;;15.30;99.90;;;;;;5104198;27;19945;-56
2022/09/28 11:01:09;;;;;;;;;;;16.00;99.90;;;;;;5090834;27;19927;-55
2022/09/28 11:03:51;;;;;;;;;;;16.90;99.90;;;;;;5124765;27;19916;-56
2022/09/28 11:06:32;;;;;;;;;;;17.00;99.90;;;;;;5104370;27;19912;-55
2022/09/28 11:09:23;;;;;;;;;;;16.60;99.90;;;;;;5124134;27;19912;-57
2022/09/28 11:12:06;;;;;;;;;;;16.80;99.90;;;;;;5124419;27;19920;-57
2022/09/28 11:14:51;;;;;;;;;;;17.00;99.90;;;;;;5103307;27;19958;-56
2022/09/28 11:17:37;;;;;;;;;;;16.60;97.30;;;;;;5102773;27;20319;-56
2022/09/28 11:20:34;;;;;;;;;;;16.40;99.90;;;;;;5097466;27;19958;-56
2022/09/28 11:23:19;;;;;;;;;;;16.10;99.90;;;;;;5105207;27;20138;-55
2022/09/28 11:26:02;;;;;;;;;;;15.80;99.90;;;;;;5125056;27;19912;-56
2022/09/28 11:28:42;;;;;;;;;;;15.50;99.90;;;;;;5101820;27;20052;-55
2022/09/28 11:31:31;;;;;;;;;;;15.60;99.90;;;;;;5100106;27;20423;-55
2022/09/28 11:34:21;;;;;;;;;;;15.60;99.90;;;;;;5123620;27;19919;-57
2022/09/28 11:37:22;;;;;;;;;;;15.50;99.90;;;;;;5123451;27;19912;-55
2022/09/28 11:40:09;;;;;;;;;;;15.40;99.90;;;;;;5120436;27;19912;-56
2022/09/28 11:42:53;;;;;;;;;;;15.20;99.90;;;;;;5104651;27;20438;-57
2022/09/28 11:45:40;;;;;;;;;;;15.10;99.90;;;;;;5081921;28;20169;-55
2022/09/28 11:48:23;;;;;;;;;;;14.60;99.90;;;;;;5102491;27;19930;-55
2022/09/28 11:51:06;;;;;;;;;;;14.10;99.90;;;;;;5100362;27;20369;-56
2022/09/28 11:53:50;;;;;;;;;;;13.90;99.90;;;;;;5104818;27;20323;-55
2022/09/28 11:56:34;;;;;;;;;;;14.00;99.90;;;;;;5123291;27;20396;-56
2022/09/28 11:59:16;;;;;;;;;;;13.80;99.90;;;;;;5082050;28;20210;-56
2022/09/28 12:02:02;;;;;;;;;;;13.70;99.90;;;;;;5084321;28;19920;-56
2022/09/28 12:04:55;;;;;;;;;;;13.50;99.90;;;;;;5108499;27;20380;-55
2022/09/28 12:07:39;;;;;;;;;;;13.00;99.90;;;;;;5104176;27;19930;-56
2022/09/28 12:10:31;;;;;;;;;;;12.60;99.90;;;;;;5104201;27;19926;-57
2022/09/28 12:13:16;;;;;;;;;;;12.10;99.90;;;;;;5104930;27;19930;-56
2022/09/28 12:15:58;;;;;;;;;;;12.10;99.90;;;;;;5124841;27;19912;-55
2022/09/28 12:18:43;;;;;;;;;;;12.20;99.90;;;;;;5104318;27;19926;-56
2022/09/28 12:21:34;;;;;;;;;;;12.50;99.90;;;;;;5125975;27;19912;-55
2022/09/28 12:24:18;;;;;;;;;;;12.90;99.90;;;;;;5124783;27;20191;-55
2022/09/28 12:27:00;;;;;;;;;;;13.40;99.90;;;;;;5125385;27;20148;-58
2022/09/28 12:29:40;;;;;;;;;;;13.60;99.90;;;;;;5102614;27;20423;-56
2022/09/28 12:32:25;;;;;;;;;;;13.90;99.90;;;;;;5102565;27;19932;-56
2022/09/28 12:35:12;;;;;;;;;;;14.30;99.90;;;;;;5123804;27;19928;-55
2022/09/28 12:37:58;;;;;;;;;;;14.70;99.90;;;;;;5102813;27;19954;-56
2022/09/28 12:40:41;;;;;;;;;;;14.80;99.90;;;;;;5088167;27;19917;-57
2022/09/28 12:43:53;;;;;;;;;;;14.50;99.90;;;;;;5104278;27;19930;-56
2022/09/28 12:46:44;;;;;;;;;;;14.20;99.90;;;;;;5123211;27;19915;-55
2022/09/28 12:49:29;;;;;;;;;;;13.90;99.90;;;;;;5121704;27;19912;-55
2022/09/28 12:52:15;;;;;;;;;;;13.70;99.90;;;;;;5125590;27;20323;-55
2022/09/28 12:55:06;;;;;;;;;;;13.70;99.90;;;;;;5084370;28;20401;-56
2022/09/28 12:57:53;;;;;;;;;;;13.80;99.90;;;;;;5104176;27;20323;-55
2022/09/28 13:00:38;;;;;;;;;;;14.10;99.90;;;;;;5095823;27;19950;-56
2022/09/28 13:03:30;;;;;;;;;;;14.50;99.90;;;;;;5108747;27;20323;-53
2022/09/28 13:06:30;;;;;;;;;;;14.90;99.90;;;;;;5104600;27;19919;-56
2022/09/28 13:09:15;;;;;;;;;;;14.70;99.90;;;;;;5102913;27;20138;-55
2022/09/28 13:11:59;;;;;;;;;;;14.30;99.90;;;;;;5123907;27;19919;-54
2022/09/28 13:15:07;;;;;;;;;;;14.40;99.90;;;;;;5107274;27;19915;-55
2022/09/28 13:17:52;;;;;;;;;;;14.60;99.90;;;;;;5104291;27;19926;-56
2022/09/28 13:20:49;;;;;;;;;;;14.60;98.70;;;;;;5116322;27;19920;-55
2022/09/28 13:23:33;;;;;;;;;;;14.50;99.90;;;;;;5101329;27;20418;-55
2022/09/28 13:26:16;;;;;;;;;;;14.50;99.90;;;;;;5103600;27;20307;-55
2022/09/28 13:29:03;;;;;;;;;;;14.40;99.90;;;;;;5104460;27;19926;-55
2022/09/28 13:31:45;;;;;;;;;;;14.30;99.90;;;;;;5096772;27;20499;-56
2022/09/28 13:34:26;;;;;;;;;;;14.20;99.90;;;;;;5102200;27;19958;-57
2022/09/28 13:37:18;;;;;;;;;;;14.10;99.90;;;;;;5095107;27;19930;-55
2022/09/28 13:40:04;;;;;;;;;;;14.00;99.90;;;;;;5104200;27;19926;-55
2022/09/28 13:43:00;;;;;;;;;;;14.10;99.90;;;;;;5104958;27;20829;-55
2022/09/28 13:45:57;;;;;;;;;;;14.10;99.90;;;;;;5103017;27;19957;-55
2022/09/28 13:48:43;;;;;;;;;;;13.90;99.90;;;;;;5125126;27;19916;-56
2022/09/28 13:51:31;;;;;;;;;;;14.00;99.90;;;;;;5110580;27;19912;-55
2022/09/28 13:54:26;;;;;;;;;;;14.20;99.90;;;;;;5105551;27;19950;-55
2022/09/28 13:57:13;;;;;;;;;;;14.40;99.90;;;;;;5105031;27;19957;-58
2022/09/28 13:59:58;;;;;;;;;;;14.70;99.90;;;;;;5104579;27;19940;-55
2022/09/28 14:02:41;;;;;;;;;;;14.90;97.50;;;;;;5125721;27;19916;-56
2022/09/28 14:05:36;;;;;;;;;;;15.10;97.20;;;;;;5105175;27;19965;-54
2022/09/28 14:08:32;;;;;;;;;;;15.00;95.70;;;;;;5105271;27;19913;-55
2022/09/28 14:11:41;;;;;;;;;;;15.00;95.70;;;;;;5112129;27;19912;-54
2022/09/28 14:14:46;;;;;;;;;;;15.00;86.00;;;;;;5084771;28;19912;-55
2022/09/28 14:17:52;;;;;;;;;;;14.70;90.90;;;;;;5105106;27;19916;-56
2022/09/28 14:20:34;;;;;;;;;;;14.40;96.50;;;;;;5082708;28;19927;-55
2022/09/28 14:23:31;;;;;;;;;;;14.20;99.90;;;;;;5103961;27;19954;-56
2022/09/28 14:26:23;;;;;;;;;;;13.90;97.40;;;;;;5103415;27;19957;-58
2022/09/28 14:29:09;;;;;;;;;;;13.60;99.90;;;;;;5124056;27;19918;-56
2022/09/28 14:31:49;;;;;;;;;;;13.50;99.90;;;;;;5064952;28;19917;-56
2022/09/28 14:34:35;;;;;;;;;;;13.40;99.90;;;;;;5104038;27;20153;-55
2022/09/28 14:43:27;;;;;;;;;;;13.40;99.90;;;;;;5146034;27;19911;-56
2022/09/28 14:46:27;;;;;;;;;;;13.40;99.90;;;;;;5102268;27;19926;-57
2022/09/28 14:49:29;;;;;;;;;;;13.30;99.90;;;;;;5104112;27;20331;-57
2022/09/28 14:52:12;;;;;;;;;;;13.10;99.90;;;;;;5107947;22;19982;-55
2022/09/28 14:54:54;;;;;;;;;;;12.90;99.90;;;;;;5105288;27;19965;-55
2022/09/28 14:57:34;;;;;;;;;;;12.70;99.90;;;;;;5104746;27;19926;-56
2022/09/28 15:00:20;;;;;;;;;;;12.50;99.90;;;;;;5157674;27;19911;-57
2022/09/28 15:03:10;;;;;;;;;;;12.30;99.90;;;;;;5105215;27;19926;-56
2022/09/28 15:05:54;;;;;;;;;;;12.10;99.90;;;;;;5060919;27;2305347;-56
2022/09/28 15:08:39;;;;;;;;;;;12.00;99.90;;;;;;5055925;27;2531384;-56
2022/09/28 15:11:22;;;;;;;;;;;11.90;99.90;;;;;;5125736;27;19918;-56
2022/09/28 15:14:07;;;;;;;;;;;11.70;99.90;;;;;;5125292;27;20281;-56
2022/09/28 15:16:48;;;;;;;;;;;11.70;99.90;;;;;;5125455;27;19912;-54
2022/09/28 15:19:31;;;;;;;;;;;11.60;99.90;;;;;;5124579;27;19915;-55
2022/09/28 15:22:16;;;;;;;;;;;11.60;99.90;;;;;;5092228;27;19931;-55
2022/09/28 15:24:58;;;;;;;;;;;11.70;99.90;;;;;;5123797;27;19911;-55
2022/09/28 15:27:40;;;;;;;;;;;11.70;99.90;;;;;;5104698;27;20312;-56
2022/09/28 15:30:23;;;;;;;;;;;11.70;99.90;;;;;;5124865;27;19926;-56
2022/09/28 15:36:00;;;;;;;;;;;11.50;99.90;;;;;;5104730;27;20380;-56
2022/09/28 15:38:40;;;;;;;;;;;11.40;99.90;;;;;;5104806;27;19912;-56
2022/09/28 15:41:23;;;;;;;;;;;11.40;99.90;;;;;;5146630;27;19944;-56
2022/09/28 15:44:22;;;;;;;;;;;11.30;99.90;;;;;;5104776;27;20256;-56
2022/09/28 15:47:08;;;;;;;;;;;11.30;99.90;;;;;;5125416;27;19916;-57
2022/09/28 15:49:56;;;;;;;;;;;11.20;99.90;;;;;;5104434;27;19953;-55
2022/09/28 15:52:39;;;;;;;;;;;11.10;99.90;;;;;;5089015;27;19946;-56
2022/09/28 15:55:21;;;;;;;;;;;11.10;99.90;;;;;;5104936;27;19912;-55
2022/09/28 15:58:15;;;;;;;;;;;11.10;99.90;;;;;;5104658;27;19926;-56
2022/09/28 16:01:09;;;;;;;;;;;11.10;99.90;;;;;;5082366;28;20320;-56
2022/09/28 16:03:50;;;;;;;;;;;11.10;99.90;;;;;;5105423;27;19958;-56
2022/09/28 16:06:30;;;;;;;;;;;11.00;99.90;;;;;;5145954;27;19968;-55
2022/09/28 16:09:25;;;;;;;;;;;11.00;99.90;;;;;;5096539;27;19926;-55
2022/09/28 16:12:12;;;;;;;;;;;11.00;99.90;;;;;;5084761;28;19913;-54
2022/09/28 16:14:53;;;;;;;;;;;10.90;99.90;;;;;;5105046;27;19957;-55
2022/09/28 16:17:35;;;;;;;;;;;10.80;99.90;;;;;;5104803;27;19920;-54
2022/09/28 16:20:30;;;;;;;;;;;10.70;99.90;;;;;;5124883;27;19922;-56
2022/09/28 16:23:21;;;;;;;;;;;10.60;99.90;;;;;;5127285;27;19916;-55
2022/09/28 16:26:03;;;;;;;;;;;10.50;99.90;;;;;;5105013;27;19912;-54
2022/09/28 16:28:50;;;;;;;;;;;10.40;99.90;;;;;;5125190;27;20323;-56
2022/09/28 16:31:33;;;;;;;;;;;10.40;99.90;;;;;;5100259;27;20389;-55
2022/09/28 16:34:19;;;;;;;;;;;10.20;99.90;;;;;;5104883;27;20369;-55
2022/09/28 16:37:00;;;;;;;;;;;10.10;99.90;;;;;;5125941;27;19912;-55
2022/09/28 16:39:40;;;;;;;;;;;9.90;99.90;;;;;;5123548;27;19922;-55
2022/09/28 16:42:20;;;;;;;;;;;9.70;99.90;;;;;;5104919;27;19926;-55